sensor_id;sensor_type;location;lat;lon;timestamp;P1;durP1;ratioP1;P2;durP2;ratioP2
8232;SDS011;4157;48.074;9.952;2024-02-26T00:01:37;5.40;;;3.00;;
8232;SDS011;4157;48.074;9.952;2024-02-26T00:04:05;5.82;;;2.90;;
8232;SDS011;4157;48.074;9.952;2024-02-26T00:06:33;4.47;;;2.72;;
8232;SDS011;4157;48.074;9.952;2024-02-26T00:09:00;4.93;;;2.85;;
8232;SDS011;4157;48.074;9.952;2024-02-26T00:11:32;4.30;;;2.20;;
8232;SDS011;4157;48.074;9.952;2024-02-26T00:14:00;4.20;;;2.25;;
8232;SDS011;4157;48.074;9.952;2024-02-26T00:16:28;5.18;;;2.22;;
8232;SDS011;4157;48.074;9.952;2024-02-26T00:18:55;4.00;;;2.00;;
8232;SDS011;4157;48.074;9.952;2024-02-26T00:21:23;4.18;;;1.90;;
8232;SDS011;4157;48.074;9.952;2024-02-26T00:23:52;4.07;;;2.10;;
8232;SDS011;4157;48.074;9.952;2024-02-26T00:26:20;4.35;;;2.10;;
8232;SDS011;4157;48.074;9.952;2024-02-26T00:28:49;4.22;;;2.17;;
8232;SDS011;4157;48.074;9.952;2024-02-26T00:31:16;4.40;;;2.03;;
8232;SDS011;4157;48.074;9.952;2024-02-26T00:33:44;3.90;;;1.90;;
8232;SDS011;4157;48.074;9.952;2024-02-26T00:36:12;3.95;;;1.90;;
8232;SDS011;4157;48.074;9.952;2024-02-26T00:38:40;4.47;;;2.03;;
8232;SDS011;4157;48.074;9.952;2024-02-26T00:41:08;4.45;;;2.08;;
8232;SDS011;4157;48.074;9.952;2024-02-26T00:43:36;4.22;;;2.05;;
8232;SDS011;4157;48.074;9.952;2024-02-26T00:46:06;3.50;;;1.85;;
8232;SDS011;4157;48.074;9.952;2024-02-26T00:48:34;4.20;;;2.00;;
8232;SDS011;4157;48.074;9.952;2024-02-26T00:51:02;3.92;;;1.67;;
8232;SDS011;4157;48.074;9.952;2024-02-26T00:53:31;3.10;;;1.77;;
8232;SDS011;4157;48.074;9.952;2024-02-26T00:55:59;3.75;;;2.10;;
8232;SDS011;4157;48.074;9.952;2024-02-26T00:58:27;4.70;;;2.42;;
8232;SDS011;4157;48.074;9.952;2024-02-26T01:00:54;3.83;;;1.90;;
8232;SDS011;4157;48.074;9.952;2024-02-26T01:03:23;3.17;;;1.70;;
8232;SDS011;4157;48.074;9.952;2024-02-26T01:05:51;3.97;;;2.05;;
8232;SDS011;4157;48.074;9.952;2024-02-26T01:08:18;3.40;;;1.77;;
8232;SDS011;4157;48.074;9.952;2024-02-26T01:10:46;3.67;;;2.05;;
8232;SDS011;4157;48.074;9.952;2024-02-26T01:13:14;3.55;;;1.90;;
8232;SDS011;4157;48.074;9.952;2024-02-26T01:15:41;4.40;;;1.98;;
8232;SDS011;4157;48.074;9.952;2024-02-26T01:18:10;3.58;;;1.80;;
8232;SDS011;4157;48.074;9.952;2024-02-26T01:20:39;3.80;;;2.03;;
8232;SDS011;4157;48.074;9.952;2024-02-26T01:23:06;4.03;;;2.30;;
8232;SDS011;4157;48.074;9.952;2024-02-26T01:25:34;3.53;;;2.10;;
8232;SDS011;4157;48.074;9.952;2024-02-26T01:28:02;4.00;;;2.20;;
8232;SDS011;4157;48.074;9.952;2024-02-26T01:30:31;4.28;;;1.98;;
8232;SDS011;4157;48.074;9.952;2024-02-26T01:32:58;3.88;;;2.30;;
8232;SDS011;4157;48.074;9.952;2024-02-26T01:35:26;4.93;;;2.60;;
8232;SDS011;4157;48.074;9.952;2024-02-26T01:37:55;4.55;;;2.20;;
8232;SDS011;4157;48.074;9.952;2024-02-26T01:40:26;4.55;;;2.55;;
8232;SDS011;4157;48.074;9.952;2024-02-26T01:42:54;3.72;;;2.20;;
8232;SDS011;4157;48.074;9.952;2024-02-26T01:45:21;3.67;;;2.35;;
8232;SDS011;4157;48.074;9.952;2024-02-26T01:47:50;4.15;;;2.30;;
8232;SDS011;4157;48.074;9.952;2024-02-26T01:50:19;4.63;;;2.40;;
8232;SDS011;4157;48.074;9.952;2024-02-26T01:52:47;4.32;;;2.50;;
8232;SDS011;4157;48.074;9.952;2024-02-26T01:55:18;4.53;;;2.35;;
8232;SDS011;4157;48.074;9.952;2024-02-26T01:57:46;4.88;;;2.50;;
8232;SDS011;4157;48.074;9.952;2024-02-26T02:00:15;4.72;;;2.40;;
8232;SDS011;4157;48.074;9.952;2024-02-26T02:02:43;5.25;;;2.55;;
8232;SDS011;4157;48.074;9.952;2024-02-26T02:05:12;5.35;;;2.78;;
8232;SDS011;4157;48.074;9.952;2024-02-26T02:07:41;4.90;;;2.45;;
8232;SDS011;4157;48.074;9.952;2024-02-26T02:10:09;3.97;;;2.30;;
8232;SDS011;4157;48.074;9.952;2024-02-26T02:12:38;5.10;;;2.50;;
8232;SDS011;4157;48.074;9.952;2024-02-26T02:15:06;3.58;;;2.00;;
8232;SDS011;4157;48.074;9.952;2024-02-26T02:17:34;4.60;;;2.55;;
8232;SDS011;4157;48.074;9.952;2024-02-26T02:20:02;4.50;;;2.38;;
8232;SDS011;4157;48.074;9.952;2024-02-26T02:22:31;6.68;;;2.22;;
8232;SDS011;4157;48.074;9.952;2024-02-26T02:24:58;4.10;;;2.20;;
8232;SDS011;4157;48.074;9.952;2024-02-26T02:27:26;4.75;;;2.67;;
8232;SDS011;4157;48.074;9.952;2024-02-26T02:29:54;4.57;;;2.13;;
8232;SDS011;4157;48.074;9.952;2024-02-26T02:32:22;4.22;;;2.33;;
8232;SDS011;4157;48.074;9.952;2024-02-26T02:34:50;3.63;;;2.40;;
8232;SDS011;4157;48.074;9.952;2024-02-26T02:37:18;3.88;;;2.17;;
8232;SDS011;4157;48.074;9.952;2024-02-26T02:39:47;4.43;;;2.30;;
8232;SDS011;4157;48.074;9.952;2024-02-26T02:42:14;4.50;;;2.40;;
8232;SDS011;4157;48.074;9.952;2024-02-26T02:44:42;4.35;;;2.40;;
8232;SDS011;4157;48.074;9.952;2024-02-26T02:47:10;5.22;;;2.60;;
8232;SDS011;4157;48.074;9.952;2024-02-26T02:49:38;3.83;;;2.10;;
8232;SDS011;4157;48.074;9.952;2024-02-26T02:52:05;3.47;;;2.10;;
8232;SDS011;4157;48.074;9.952;2024-02-26T02:54:33;4.03;;;2.33;;
8232;SDS011;4157;48.074;9.952;2024-02-26T02:57:02;4.65;;;2.50;;
8232;SDS011;4157;48.074;9.952;2024-02-26T02:59:30;3.83;;;2.10;;
8232;SDS011;4157;48.074;9.952;2024-02-26T03:01:58;5.05;;;2.92;;
8232;SDS011;4157;48.074;9.952;2024-02-26T03:04:25;4.88;;;2.53;;
8232;SDS011;4157;48.074;9.952;2024-02-26T03:06:54;4.10;;;2.42;;
8232;SDS011;4157;48.074;9.952;2024-02-26T03:09:23;5.05;;;2.33;;
8232;SDS011;4157;48.074;9.952;2024-02-26T03:11:51;4.18;;;2.22;;
8232;SDS011;4157;48.074;9.952;2024-02-26T03:14:20;5.00;;;2.67;;
8232;SDS011;4157;48.074;9.952;2024-02-26T03:16:48;8.88;;;4.72;;
8232;SDS011;4157;48.074;9.952;2024-02-26T03:19:15;7.25;;;4.22;;
8232;SDS011;4157;48.074;9.952;2024-02-26T03:21:43;7.50;;;2.97;;
8232;SDS011;4157;48.074;9.952;2024-02-26T03:24:11;8.27;;;4.15;;
8232;SDS011;4157;48.074;9.952;2024-02-26T03:26:38;6.25;;;3.75;;
8232;SDS011;4157;48.074;9.952;2024-02-26T03:29:06;5.72;;;3.55;;
8232;SDS011;4157;48.074;9.952;2024-02-26T03:31:35;6.03;;;3.65;;
8232;SDS011;4157;48.074;9.952;2024-02-26T03:34:03;5.90;;;3.35;;
8232;SDS011;4157;48.074;9.952;2024-02-26T03:36:30;5.75;;;2.83;;
8232;SDS011;4157;48.074;9.952;2024-02-26T03:38:58;5.63;;;3.17;;
8232;SDS011;4157;48.074;9.952;2024-02-26T03:41:26;5.10;;;3.20;;
8232;SDS011;4157;48.074;9.952;2024-02-26T03:43:53;5.68;;;3.38;;
8232;SDS011;4157;48.074;9.952;2024-02-26T03:46:21;6.65;;;3.90;;
8232;SDS011;4157;48.074;9.952;2024-02-26T03:48:50;7.18;;;3.97;;
8232;SDS011;4157;48.074;9.952;2024-02-26T03:51:18;6.25;;;3.55;;
8232;SDS011;4157;48.074;9.952;2024-02-26T03:53:45;5.68;;;3.30;;
8232;SDS011;4157;48.074;9.952;2024-02-26T03:56:13;5.88;;;3.40;;
8232;SDS011;4157;48.074;9.952;2024-02-26T03:58:41;5.75;;;2.67;;
8232;SDS011;4157;48.074;9.952;2024-02-26T04:01:08;7.25;;;3.15;;
8232;SDS011;4157;48.074;9.952;2024-02-26T04:03:36;5.47;;;3.00;;
8232;SDS011;4157;48.074;9.952;2024-02-26T04:06:08;7.15;;;3.25;;
8232;SDS011;4157;48.074;9.952;2024-02-26T04:08:36;6.88;;;3.50;;
8232;SDS011;4157;48.074;9.952;2024-02-26T04:11:03;5.28;;;2.78;;
8232;SDS011;4157;48.074;9.952;2024-02-26T04:13:32;6.13;;;2.78;;
8232;SDS011;4157;48.074;9.952;2024-02-26T04:16:00;5.00;;;2.67;;
8232;SDS011;4157;48.074;9.952;2024-02-26T04:18:28;4.60;;;2.83;;
8232;SDS011;4157;48.074;9.952;2024-02-26T04:20:56;4.53;;;2.90;;
8232;SDS011;4157;48.074;9.952;2024-02-26T04:23:25;5.32;;;3.15;;
8232;SDS011;4157;48.074;9.952;2024-02-26T04:25:53;5.25;;;2.95;;
8232;SDS011;4157;48.074;9.952;2024-02-26T04:28:20;4.70;;;2.60;;
8232;SDS011;4157;48.074;9.952;2024-02-26T04:30:51;4.43;;;2.55;;
8232;SDS011;4157;48.074;9.952;2024-02-26T04:33:18;6.97;;;3.17;;
8232;SDS011;4157;48.074;9.952;2024-02-26T04:35:46;6.45;;;2.45;;
8232;SDS011;4157;48.074;9.952;2024-02-26T04:38:14;4.68;;;2.72;;
8232;SDS011;4157;48.074;9.952;2024-02-26T04:40:43;5.13;;;2.90;;
8232;SDS011;4157;48.074;9.952;2024-02-26T04:43:10;4.75;;;2.63;;
8232;SDS011;4157;48.074;9.952;2024-02-26T04:45:38;4.35;;;2.60;;
8232;SDS011;4157;48.074;9.952;2024-02-26T04:48:06;5.97;;;2.90;;
8232;SDS011;4157;48.074;9.952;2024-02-26T04:50:34;6.35;;;2.70;;
8232;SDS011;4157;48.074;9.952;2024-02-26T04:53:01;4.07;;;2.60;;
8232;SDS011;4157;48.074;9.952;2024-02-26T04:55:29;4.97;;;2.50;;
8232;SDS011;4157;48.074;9.952;2024-02-26T04:57:58;5.70;;;2.70;;
8232;SDS011;4157;48.074;9.952;2024-02-26T05:00:25;6.50;;;3.50;;
8232;SDS011;4157;48.074;9.952;2024-02-26T05:02:53;4.85;;;2.83;;
8232;SDS011;4157;48.074;9.952;2024-02-26T05:05:21;7.10;;;3.13;;
8232;SDS011;4157;48.074;9.952;2024-02-26T05:07:48;5.07;;;3.00;;
8232;SDS011;4157;48.074;9.952;2024-02-26T05:10:16;5.20;;;2.55;;
8232;SDS011;4157;48.074;9.952;2024-02-26T05:12:44;4.93;;;3.03;;
8232;SDS011;4157;48.074;9.952;2024-02-26T05:15:13;5.28;;;2.70;;
8232;SDS011;4157;48.074;9.952;2024-02-26T05:17:43;4.70;;;2.95;;
8232;SDS011;4157;48.074;9.952;2024-02-26T05:20:11;5.30;;;3.00;;
8232;SDS011;4157;48.074;9.952;2024-02-26T05:22:39;4.88;;;2.80;;
8232;SDS011;4157;48.074;9.952;2024-02-26T05:25:07;5.07;;;3.00;;
8232;SDS011;4157;48.074;9.952;2024-02-26T05:27:35;4.30;;;2.80;;
8232;SDS011;4157;48.074;9.952;2024-02-26T05:30:04;4.45;;;2.85;;
8232;SDS011;4157;48.074;9.952;2024-02-26T05:32:33;10.68;;;4.40;;
8232;SDS011;4157;48.074;9.952;2024-02-26T05:35:01;8.00;;;3.70;;
8232;SDS011;4157;48.074;9.952;2024-02-26T05:37:29;4.88;;;3.22;;
8232;SDS011;4157;48.074;9.952;2024-02-26T05:39:57;5.45;;;3.17;;
8232;SDS011;4157;48.074;9.952;2024-02-26T05:42:24;6.90;;;3.97;;
8232;SDS011;4157;48.074;9.952;2024-02-26T05:44:51;8.13;;;4.63;;
8232;SDS011;4157;48.074;9.952;2024-02-26T05:47:19;8.85;;;5.63;;
8232;SDS011;4157;48.074;9.952;2024-02-26T05:49:48;7.07;;;4.32;;
8232;SDS011;4157;48.074;9.952;2024-02-26T05:52:15;11.07;;;7.07;;
8232;SDS011;4157;48.074;9.952;2024-02-26T05:54:43;11.23;;;7.65;;
8232;SDS011;4157;48.074;9.952;2024-02-26T05:57:11;7.15;;;3.83;;
8232;SDS011;4157;48.074;9.952;2024-02-26T05:59:38;8.60;;;5.15;;
8232;SDS011;4157;48.074;9.952;2024-02-26T06:02:06;7.22;;;4.82;;
8232;SDS011;4157;48.074;9.952;2024-02-26T06:04:34;7.68;;;4.60;;
8232;SDS011;4157;48.074;9.952;2024-02-26T06:07:03;7.10;;;4.10;;
8232;SDS011;4157;48.074;9.952;2024-02-26T06:09:31;6.55;;;3.08;;
8232;SDS011;4157;48.074;9.952;2024-02-26T06:11:59;5.28;;;3.25;;
8232;SDS011;4157;48.074;9.952;2024-02-26T06:14:26;8.85;;;3.65;;
8232;SDS011;4157;48.074;9.952;2024-02-26T06:16:54;6.10;;;3.60;;
8232;SDS011;4157;48.074;9.952;2024-02-26T06:19:23;7.78;;;3.60;;
8232;SDS011;4157;48.074;9.952;2024-02-26T06:21:50;5.35;;;3.67;;
8232;SDS011;4157;48.074;9.952;2024-02-26T06:24:19;6.45;;;3.95;;
8232;SDS011;4157;48.074;9.952;2024-02-26T06:26:48;5.13;;;3.60;;
8232;SDS011;4157;48.074;9.952;2024-02-26T06:29:15;7.65;;;4.30;;
8232;SDS011;4157;48.074;9.952;2024-02-26T06:31:43;5.63;;;3.55;;
8232;SDS011;4157;48.074;9.952;2024-02-26T06:34:11;6.40;;;4.10;;
8232;SDS011;4157;48.074;9.952;2024-02-26T06:36:38;7.43;;;4.53;;
8232;SDS011;4157;48.074;9.952;2024-02-26T06:39:06;6.78;;;4.13;;
8232;SDS011;4157;48.074;9.952;2024-02-26T06:41:35;5.32;;;3.28;;
8232;SDS011;4157;48.074;9.952;2024-02-26T06:44:05;7.38;;;3.55;;
8232;SDS011;4157;48.074;9.952;2024-02-26T06:46:32;29.35;;;16.77;;
8232;SDS011;4157;48.074;9.952;2024-02-26T06:49:00;23.88;;;13.52;;
8232;SDS011;4157;48.074;9.952;2024-02-26T06:51:28;29.92;;;17.45;;
8232;SDS011;4157;48.074;9.952;2024-02-26T06:53:55;23.65;;;13.60;;
8232;SDS011;4157;48.074;9.952;2024-02-26T06:56:23;29.40;;;15.75;;
8232;SDS011;4157;48.074;9.952;2024-02-26T06:58:52;27.17;;;15.20;;
8232;SDS011;4157;48.074;9.952;2024-02-26T07:01:20;23.33;;;13.48;;
8232;SDS011;4157;48.074;9.952;2024-02-26T07:03:47;21.50;;;12.23;;
8232;SDS011;4157;48.074;9.952;2024-02-26T07:06:15;18.23;;;10.88;;
8232;SDS011;4157;48.074;9.952;2024-02-26T07:08:43;15.50;;;8.98;;
8232;SDS011;4157;48.074;9.952;2024-02-26T07:11:10;13.43;;;8.07;;
8232;SDS011;4157;48.074;9.952;2024-02-26T07:13:38;12.30;;;7.22;;
8232;SDS011;4157;48.074;9.952;2024-02-26T07:16:07;10.07;;;6.32;;
8232;SDS011;4157;48.074;9.952;2024-02-26T07:18:37;9.00;;;5.13;;
8232;SDS011;4157;48.074;9.952;2024-02-26T07:21:04;8.05;;;4.80;;
8232;SDS011;4157;48.074;9.952;2024-02-26T07:23:32;11.32;;;4.90;;
8232;SDS011;4157;48.074;9.952;2024-02-26T07:26:00;17.27;;;5.00;;
8232;SDS011;4157;48.074;9.952;2024-02-26T07:28:27;16.10;;;5.75;;
8232;SDS011;4157;48.074;9.952;2024-02-26T07:30:55;20.80;;;5.60;;
8232;SDS011;4157;48.074;9.952;2024-02-26T07:33:24;20.60;;;4.78;;
8232;SDS011;4157;48.074;9.952;2024-02-26T07:35:52;16.40;;;4.30;;
8232;SDS011;4157;48.074;9.952;2024-02-26T07:38:19;12.45;;;4.68;;
8232;SDS011;4157;48.074;9.952;2024-02-26T07:40:49;6.88;;;3.60;;
8232;SDS011;4157;48.074;9.952;2024-02-26T07:43:16;8.85;;;4.20;;
8232;SDS011;4157;48.074;9.952;2024-02-26T07:45:44;7.82;;;3.63;;
8232;SDS011;4157;48.074;9.952;2024-02-26T07:48:12;5.75;;;3.30;;
8232;SDS011;4157;48.074;9.952;2024-02-26T07:50:41;7.07;;;3.60;;
8232;SDS011;4157;48.074;9.952;2024-02-26T07:53:09;6.18;;;3.55;;
8232;SDS011;4157;48.074;9.952;2024-02-26T07:55:36;6.10;;;3.45;;
8232;SDS011;4157;48.074;9.952;2024-02-26T07:58:04;5.70;;;2.92;;
8232;SDS011;4157;48.074;9.952;2024-02-26T08:00:32;6.35;;;3.13;;
8232;SDS011;4157;48.074;9.952;2024-02-26T08:02:59;5.28;;;3.50;;
8232;SDS011;4157;48.074;9.952;2024-02-26T08:05:27;7.43;;;3.45;;
8232;SDS011;4157;48.074;9.952;2024-02-26T08:07:56;6.18;;;3.85;;
8232;SDS011;4157;48.074;9.952;2024-02-26T08:10:24;7.00;;;3.58;;
8232;SDS011;4157;48.074;9.952;2024-02-26T08:12:52;7.35;;;3.92;;
8232;SDS011;4157;48.074;9.952;2024-02-26T08:15:19;6.80;;;3.72;;
8232;SDS011;4157;48.074;9.952;2024-02-26T08:17:47;7.15;;;3.38;;
8232;SDS011;4157;48.074;9.952;2024-02-26T08:20:15;5.65;;;3.13;;
8232;SDS011;4157;48.074;9.952;2024-02-26T08:22:42;6.35;;;3.38;;
8232;SDS011;4157;48.074;9.952;2024-02-26T08:25:11;6.05;;;3.17;;
8232;SDS011;4157;48.074;9.952;2024-02-26T08:27:40;4.93;;;2.92;;
8232;SDS011;4157;48.074;9.952;2024-02-26T08:30:08;5.32;;;3.22;;
8232;SDS011;4157;48.074;9.952;2024-02-26T08:32:35;6.85;;;3.60;;
8232;SDS011;4157;48.074;9.952;2024-02-26T08:35:03;5.85;;;3.45;;
8232;SDS011;4157;48.074;9.952;2024-02-26T08:37:31;5.93;;;3.75;;
8232;SDS011;4157;48.074;9.952;2024-02-26T08:39:59;6.70;;;3.50;;
8232;SDS011;4157;48.074;9.952;2024-02-26T08:42:28;6.20;;;3.88;;
8232;SDS011;4157;48.074;9.952;2024-02-26T08:44:55;5.20;;;2.95;;
8232;SDS011;4157;48.074;9.952;2024-02-26T08:47:25;6.35;;;3.65;;
8232;SDS011;4157;48.074;9.952;2024-02-26T08:49:53;6.05;;;3.50;;
8232;SDS011;4157;48.074;9.952;2024-02-26T08:52:21;5.93;;;3.50;;
8232;SDS011;4157;48.074;9.952;2024-02-26T08:54:49;9.95;;;3.83;;
8232;SDS011;4157;48.074;9.952;2024-02-26T08:57:17;5.32;;;3.40;;
8232;SDS011;4157;48.074;9.952;2024-02-26T08:59:45;6.20;;;3.67;;
8232;SDS011;4157;48.074;9.952;2024-02-26T09:02:13;7.80;;;4.40;;
8232;SDS011;4157;48.074;9.952;2024-02-26T09:04:41;8.90;;;4.47;;
8232;SDS011;4157;48.074;9.952;2024-02-26T09:07:08;6.85;;;4.47;;
8232;SDS011;4157;48.074;9.952;2024-02-26T09:09:36;9.50;;;4.90;;
8232;SDS011;4157;48.074;9.952;2024-02-26T09:12:03;6.10;;;4.45;;
8232;SDS011;4157;48.074;9.952;2024-02-26T09:14:31;7.30;;;5.15;;
8232;SDS011;4157;48.074;9.952;2024-02-26T09:17:00;7.75;;;5.38;;
8232;SDS011;4157;48.074;9.952;2024-02-26T09:19:27;9.93;;;6.05;;
8232;SDS011;4157;48.074;9.952;2024-02-26T09:21:55;10.35;;;6.75;;
8232;SDS011;4157;48.074;9.952;2024-02-26T09:24:23;9.18;;;6.47;;
8232;SDS011;4157;48.074;9.952;2024-02-26T09:26:51;9.45;;;6.18;;
8232;SDS011;4157;48.074;9.952;2024-02-26T09:29:19;10.43;;;6.28;;
8232;SDS011;4157;48.074;9.952;2024-02-26T09:31:46;9.50;;;5.88;;
8232;SDS011;4157;48.074;9.952;2024-02-26T09:34:15;7.88;;;5.70;;
8232;SDS011;4157;48.074;9.952;2024-02-26T09:36:43;9.95;;;6.57;;
8232;SDS011;4157;48.074;9.952;2024-02-26T09:39:11;10.77;;;6.75;;
8232;SDS011;4157;48.074;9.952;2024-02-26T09:41:40;10.07;;;7.50;;
8232;SDS011;4157;48.074;9.952;2024-02-26T09:44:08;11.30;;;7.35;;
8232;SDS011;4157;48.074;9.952;2024-02-26T09:46:36;10.13;;;7.55;;
8232;SDS011;4157;48.074;9.952;2024-02-26T09:49:04;9.88;;;7.47;;
8232;SDS011;4157;48.074;9.952;2024-02-26T09:51:34;10.88;;;7.30;;
8232;SDS011;4157;48.074;9.952;2024-02-26T09:54:02;8.88;;;6.57;;
8232;SDS011;4157;48.074;9.952;2024-02-26T09:56:29;11.98;;;6.75;;
8232;SDS011;4157;48.074;9.952;2024-02-26T09:58:58;11.48;;;6.93;;
8232;SDS011;4157;48.074;9.952;2024-02-26T10:01:25;8.45;;;6.45;;
8232;SDS011;4157;48.074;9.952;2024-02-26T10:03:57;8.80;;;6.60;;
8232;SDS011;4157;48.074;9.952;2024-02-26T10:06:25;10.23;;;6.95;;
8232;SDS011;4157;48.074;9.952;2024-02-26T10:08:55;9.65;;;7.00;;
8232;SDS011;4157;48.074;9.952;2024-02-26T10:11:24;10.85;;;6.70;;
8232;SDS011;4157;48.074;9.952;2024-02-26T10:13:52;9.35;;;6.70;;
8232;SDS011;4157;48.074;9.952;2024-02-26T10:16:20;7.78;;;5.68;;
8232;SDS011;4157;48.074;9.952;2024-02-26T10:18:48;11.52;;;6.20;;
8232;SDS011;4157;48.074;9.952;2024-02-26T10:21:16;7.10;;;5.32;;
8232;SDS011;4157;48.074;9.952;2024-02-26T10:23:44;12.07;;;5.60;;
8232;SDS011;4157;48.074;9.952;2024-02-26T10:26:14;8.88;;;5.78;;
8232;SDS011;4157;48.074;9.952;2024-02-26T10:28:43;8.13;;;5.20;;
8232;SDS011;4157;48.074;9.952;2024-02-26T10:31:11;8.75;;;5.95;;
8232;SDS011;4157;48.074;9.952;2024-02-26T10:33:39;11.40;;;7.28;;
8232;SDS011;4157;48.074;9.952;2024-02-26T10:36:07;10.30;;;7.00;;
8232;SDS011;4157;48.074;9.952;2024-02-26T10:38:35;8.60;;;6.18;;
8232;SDS011;4157;48.074;9.952;2024-02-26T10:41:03;9.15;;;5.50;;
8232;SDS011;4157;48.074;9.952;2024-02-26T10:43:32;6.00;;;4.40;;
8232;SDS011;4157;48.074;9.952;2024-02-26T10:46:00;7.07;;;4.70;;
8232;SDS011;4157;48.074;9.952;2024-02-26T10:48:27;8.30;;;4.32;;
8232;SDS011;4157;48.074;9.952;2024-02-26T10:50:55;8.35;;;4.88;;
8232;SDS011;4157;48.074;9.952;2024-02-26T10:53:24;6.82;;;4.57;;
8232;SDS011;4157;48.074;9.952;2024-02-26T10:55:54;7.82;;;4.80;;
8232;SDS011;4157;48.074;9.952;2024-02-26T10:58:22;7.15;;;4.78;;
8232;SDS011;4157;48.074;9.952;2024-02-26T11:00:52;6.78;;;4.90;;
8232;SDS011;4157;48.074;9.952;2024-02-26T11:03:19;9.05;;;6.00;;
8232;SDS011;4157;48.074;9.952;2024-02-26T11:05:47;9.68;;;6.20;;
8232;SDS011;4157;48.074;9.952;2024-02-26T11:08:15;8.50;;;5.70;;
8232;SDS011;4157;48.074;9.952;2024-02-26T11:10:44;10.60;;;6.32;;
8232;SDS011;4157;48.074;9.952;2024-02-26T11:13:14;8.20;;;5.60;;
8232;SDS011;4157;48.074;9.952;2024-02-26T11:15:42;8.68;;;6.22;;
8232;SDS011;4157;48.074;9.952;2024-02-26T11:18:11;10.35;;;6.22;;
8232;SDS011;4157;48.074;9.952;2024-02-26T11:20:40;7.35;;;5.00;;
8232;SDS011;4157;48.074;9.952;2024-02-26T11:23:08;7.35;;;4.78;;
8232;SDS011;4157;48.074;9.952;2024-02-26T11:25:36;6.50;;;4.05;;
8232;SDS011;4157;48.074;9.952;2024-02-26T11:28:06;9.32;;;4.65;;
8232;SDS011;4157;48.074;9.952;2024-02-26T11:30:36;5.38;;;3.17;;
8232;SDS011;4157;48.074;9.952;2024-02-26T11:33:04;4.57;;;2.70;;
8232;SDS011;4157;48.074;9.952;2024-02-26T11:35:35;4.55;;;2.63;;
8232;SDS011;4157;48.074;9.952;2024-02-26T11:38:03;5.97;;;3.47;;
8232;SDS011;4157;48.074;9.952;2024-02-26T11:40:32;5.85;;;3.00;;
8232;SDS011;4157;48.074;9.952;2024-02-26T11:43:00;6.47;;;3.40;;
8232;SDS011;4157;48.074;9.952;2024-02-26T11:48:15;5.55;;;3.10;;
8232;SDS011;4157;48.074;9.952;2024-02-26T11:50:47;5.35;;;2.72;;
8232;SDS011;4157;48.074;9.952;2024-02-26T11:53:22;4.55;;;2.63;;
8232;SDS011;4157;48.074;9.952;2024-02-26T11:58:32;4.18;;;2.35;;
8232;SDS011;4157;48.074;9.952;2024-02-26T12:00:59;4.22;;;2.28;;
8232;SDS011;4157;48.074;9.952;2024-02-26T12:03:27;6.30;;;2.60;;
8232;SDS011;4157;48.074;9.952;2024-02-26T12:05:57;5.78;;;2.67;;
8232;SDS011;4157;48.074;9.952;2024-02-26T12:08:24;4.57;;;2.50;;
8232;SDS011;4157;48.074;9.952;2024-02-26T12:10:52;3.97;;;2.28;;
8232;SDS011;4157;48.074;9.952;2024-02-26T12:13:21;5.35;;;2.15;;
8232;SDS011;4157;48.074;9.952;2024-02-26T12:15:57;3.67;;;2.08;;
8232;SDS011;4157;48.074;9.952;2024-02-26T12:18:25;4.55;;;2.50;;
8232;SDS011;4157;48.074;9.952;2024-02-26T12:20:59;5.75;;;2.80;;
8232;SDS011;4157;48.074;9.952;2024-02-26T12:23:27;6.28;;;3.10;;
8232;SDS011;4157;48.074;9.952;2024-02-26T12:25:58;6.85;;;3.22;;
8232;SDS011;4157;48.074;9.952;2024-02-26T12:28:27;5.93;;;3.10;;
8232;SDS011;4157;48.074;9.952;2024-02-26T12:30:55;6.20;;;4.10;;
8232;SDS011;4157;48.074;9.952;2024-02-26T12:33:25;6.93;;;4.10;;
8232;SDS011;4157;48.074;9.952;2024-02-26T12:35:53;6.45;;;3.78;;
8232;SDS011;4157;48.074;9.952;2024-02-26T12:38:22;6.18;;;3.70;;
8232;SDS011;4157;48.074;9.952;2024-02-26T12:40:50;7.53;;;3.38;;
8232;SDS011;4157;48.074;9.952;2024-02-26T12:43:18;6.95;;;3.88;;
8232;SDS011;4157;48.074;9.952;2024-02-26T12:45:46;5.88;;;3.50;;
8232;SDS011;4157;48.074;9.952;2024-02-26T12:48:13;5.82;;;2.95;;
8232;SDS011;4157;48.074;9.952;2024-02-26T12:50:44;7.65;;;4.40;;
8232;SDS011;4157;48.074;9.952;2024-02-26T12:53:12;6.90;;;3.65;;
8232;SDS011;4157;48.074;9.952;2024-02-26T12:55:41;6.30;;;3.67;;
8232;SDS011;4157;48.074;9.952;2024-02-26T12:58:09;5.22;;;2.70;;
8232;SDS011;4157;48.074;9.952;2024-02-26T13:00:37;4.40;;;2.40;;
8232;SDS011;4157;48.074;9.952;2024-02-26T13:03:06;4.30;;;2.50;;
8232;SDS011;4157;48.074;9.952;2024-02-26T13:05:34;4.90;;;2.65;;
8232;SDS011;4157;48.074;9.952;2024-02-26T13:08:01;4.60;;;2.70;;
8232;SDS011;4157;48.074;9.952;2024-02-26T13:10:31;4.90;;;2.65;;
8232;SDS011;4157;48.074;9.952;2024-02-26T13:13:01;5.07;;;2.50;;
8232;SDS011;4157;48.074;9.952;2024-02-26T13:15:29;5.88;;;2.85;;
8232;SDS011;4157;48.074;9.952;2024-02-26T13:17:58;4.05;;;2.33;;
8232;SDS011;4157;48.074;9.952;2024-02-26T13:20:36;4.35;;;2.30;;
8232;SDS011;4157;48.074;9.952;2024-02-26T13:23:06;4.28;;;2.47;;
8232;SDS011;4157;48.074;9.952;2024-02-26T13:25:34;6.70;;;2.95;;
8232;SDS011;4157;48.074;9.952;2024-02-26T13:28:09;5.90;;;3.10;;
8232;SDS011;4157;48.074;9.952;2024-02-26T13:30:37;5.93;;;3.03;;
8232;SDS011;4157;48.074;9.952;2024-02-26T13:33:08;5.00;;;2.97;;
8232;SDS011;4157;48.074;9.952;2024-02-26T13:35:35;7.82;;;3.30;;
8232;SDS011;4157;48.074;9.952;2024-02-26T13:38:04;6.30;;;3.50;;
8232;SDS011;4157;48.074;9.952;2024-02-26T13:40:32;5.65;;;3.33;;
8232;SDS011;4157;48.074;9.952;2024-02-26T13:43:00;5.60;;;3.30;;
8232;SDS011;4157;48.074;9.952;2024-02-26T13:45:29;5.75;;;3.50;;
8232;SDS011;4157;48.074;9.952;2024-02-26T13:48:04;5.40;;;3.40;;
8232;SDS011;4157;48.074;9.952;2024-02-26T13:50:32;5.38;;;3.05;;
8232;SDS011;4157;48.074;9.952;2024-02-26T13:53:00;5.18;;;3.22;;
8232;SDS011;4157;48.074;9.952;2024-02-26T13:55:28;5.00;;;3.25;;
8232;SDS011;4157;48.074;9.952;2024-02-26T13:57:57;6.15;;;3.22;;
8232;SDS011;4157;48.074;9.952;2024-02-26T14:00:26;5.28;;;3.20;;
8232;SDS011;4157;48.074;9.952;2024-02-26T14:02:56;6.03;;;3.30;;
8232;SDS011;4157;48.074;9.952;2024-02-26T14:05:23;5.68;;;3.13;;
8232;SDS011;4157;48.074;9.952;2024-02-26T14:07:51;5.10;;;3.15;;
8232;SDS011;4157;48.074;9.952;2024-02-26T14:10:20;5.20;;;3.05;;
8232;SDS011;4157;48.074;9.952;2024-02-26T14:12:47;6.45;;;3.10;;
8232;SDS011;4157;48.074;9.952;2024-02-26T14:15:15;5.82;;;3.20;;
8232;SDS011;4157;48.074;9.952;2024-02-26T14:17:43;4.53;;;2.88;;
8232;SDS011;4157;48.074;9.952;2024-02-26T14:20:12;5.60;;;3.13;;
8232;SDS011;4157;48.074;9.952;2024-02-26T14:22:40;5.25;;;3.40;;
8232;SDS011;4157;48.074;9.952;2024-02-26T14:25:08;5.00;;;3.00;;
8232;SDS011;4157;48.074;9.952;2024-02-26T14:27:36;6.07;;;3.60;;
8232;SDS011;4157;48.074;9.952;2024-02-26T14:30:04;6.68;;;3.30;;
8232;SDS011;4157;48.074;9.952;2024-02-26T14:32:32;6.47;;;3.75;;
8232;SDS011;4157;48.074;9.952;2024-02-26T14:35:02;5.70;;;3.15;;
8232;SDS011;4157;48.074;9.952;2024-02-26T14:37:31;5.82;;;3.15;;
8232;SDS011;4157;48.074;9.952;2024-02-26T14:39:58;7.22;;;3.30;;
8232;SDS011;4157;48.074;9.952;2024-02-26T14:42:26;6.75;;;3.25;;
8232;SDS011;4157;48.074;9.952;2024-02-26T14:44:54;6.53;;;3.60;;
8232;SDS011;4157;48.074;9.952;2024-02-26T14:47:21;6.35;;;3.50;;
8232;SDS011;4157;48.074;9.952;2024-02-26T14:49:49;11.68;;;6.10;;
8232;SDS011;4157;48.074;9.952;2024-02-26T14:52:17;8.95;;;4.60;;
8232;SDS011;4157;48.074;9.952;2024-02-26T14:54:46;8.23;;;3.92;;
8232;SDS011;4157;48.074;9.952;2024-02-26T14:57:14;13.68;;;9.52;;
8232;SDS011;4157;48.074;9.952;2024-02-26T14:59:41;8.23;;;5.22;;
8232;SDS011;4157;48.074;9.952;2024-02-26T15:02:09;5.57;;;3.20;;
8232;SDS011;4157;48.074;9.952;2024-02-26T15:04:37;6.97;;;4.00;;
8232;SDS011;4157;48.074;9.952;2024-02-26T15:07:05;5.30;;;3.40;;
8232;SDS011;4157;48.074;9.952;2024-02-26T15:09:32;6.10;;;3.35;;
8232;SDS011;4157;48.074;9.952;2024-02-26T15:12:02;6.05;;;3.28;;
8232;SDS011;4157;48.074;9.952;2024-02-26T15:14:32;5.35;;;3.35;;
8232;SDS011;4157;48.074;9.952;2024-02-26T15:17:00;6.10;;;3.65;;
8232;SDS011;4157;48.074;9.952;2024-02-26T15:19:28;5.88;;;3.80;;
8232;SDS011;4157;48.074;9.952;2024-02-26T15:21:56;5.63;;;3.42;;
8232;SDS011;4157;48.074;9.952;2024-02-26T15:24:23;5.78;;;3.60;;